DW9936 Weather Reports


time (UTC)temp
C
wind
direction
speed
KPH
gust
KPH
rain 1hr
cm
rain 24hr
cm
rain mn
cm
humidity
%
barometer
mb
20190418141533 18 284 1.6 12.9 0.00 0.00 0.00 37 1027.4
20190418134506 18 61 0.0 14.5 0.00 0.00 0.00 38 1027.4
20190418131515 18 111 1.6 14.5 0.00 0.00 0.00 39 1027.5
20190418130015 18 84 0.0 9.7 0.00 0.00 0.00 39 1027.6
20190418124504 17 141 1.6 9.7 0.00 0.00 0.00 40 1027.8
20190418123019 18 65 6.4 14.5 0.00 0.00 0.00 40 1027.9
20190418120101 18 74 4.8 12.9 0.00 0.00 0.00 40 1028.2
20190418114615 17 124 4.8 19.3 0.00 0.00 0.00 41 1028.2
20190418113013 17 42 4.8 24.1 0.00 0.00 0.00 41 1028.3
20190418111519 17 88 3.2 9.7 0.00 0.00 0.00 43 1028.2
20190418110236 17 101 1.6 11.3 0.00 0.00 0.00 43 1028.3
20190418103004 17 78 1.6 8.0 0.00 0.00 0.00 45 1028.4
20190418100007 16 92 1.6 9.7 0.00 0.00 0.00 48 1028.6
20190418094638 16 157 1.6 14.5 0.00 0.00 0.00 48 1028.6
20190418093046 16 125 1.6 9.7 0.00 0.00 0.00 48 1028.8
20190418091648 16 71 0.0 8.0 0.00 0.00 0.00 49 1028.9
20190418083006 15 65 1.6 11.3 0.00 0.00 0.00 53 1028.9
20190418081635 13 96 0.0 4.8 0.00 0.00 0.00 55 1028.8
20190418073110 13 119 0.0 8.0 0.00 0.00 0.00 54 1028.8
20190418070146 12 99 0.0 1.6 0.00 0.00 0.00 58 1028.6
20190418063253 10 237 0.0 1.6 0.00 0.00 0.00 65 1028.6
20190418060141 7 311 0.0 1.6 0.00 0.00 0.00 74 1028.4
20190418054716 6 326 0.0 0.0 0.00 0.00 0.00 81 1028.3
20190418044550 2 326 0.0 0.0 0.00 0.00 0.00 85 1027.9
20190418043135 2 326 0.0 0.0 0.00 0.00 0.00 84 1027.7
20190418040119 3 326 0.0 0.0 0.00 0.00 0.00 82 1027.5
20190418033216 3 326 0.0 0.0 0.00 0.00 0.00 80 1027.3
20190418031522 4 326 0.0 0.0 0.00 0.00 0.00 78 1027.2
20190418030103 5 326 0.0 0.0 0.00 0.00 0.00 78 1027.2
20190418023134 5 326 0.0 4.8 0.00 0.00 0.00 77 1027.1
20190418021611 5 309 0.0 0.0 0.00 0.00 0.00 77 1027.1
20190418020158 5 309 0.0 0.0 0.00 0.00 0.00 75 1027.1
20190418014519 6 309 0.0 0.0 0.00 0.00 0.00 74 1027.0
20190418013215 6 309 0.0 0.0 0.00 0.00 0.00 73 1027.1
20190418011521 6 309 0.0 3.2 0.00 0.00 0.00 72 1026.9
20190418010059 6 310 0.0 6.4 0.00 0.00 0.00 71 1027.0
20190418003128 7 318 0.0 6.4 0.00 0.00 0.00 70 1026.8
20190418001650 7 40 0.0 0.0 0.00 0.00 0.00 69 1026.9
20190418000119 8 41 0.0 0.0 0.00 0.00 0.00 68 1027.0
20190417234536 7 300 0.0 3.2 0.00 0.00 0.00 69 1027.0
20190417233148 8 10 0.0 0.0 0.00 0.00 0.00 68 1027.0
20190417204525 11 355 0.0 4.8 0.00 0.00 0.00 59 1025.9
20190417201548 11 342 0.0 3.2 0.00 0.00 0.00 59 1025.9
20190417200116 11 333 0.0 6.4 0.00 0.00 0.00 58 1025.9
20190417194508 11 348 0.0 3.2 0.00 0.00 0.00 58 1025.8
20190417190132 10 360 0.0 1.6 0.00 0.00 0.00 61 1025.5
20190417180141 12 333 0.0 1.6 0.00 0.00 0.00 55 1024.8
20190417174504 12 333 0.0 0.0 0.00 0.00 0.00 54 1024.6
20190417173213 13 333 0.0 1.6 0.00 0.00 0.00 52 1024.5
20190417171628 13 331 0.0 1.6 0.00 0.00 0.00 50 1024.4
20190417164609 14 346 0.0 3.2 0.00 0.00 0.00 50 1024.2